SPCL/PCL METAR and TAF weather

Enter ICAO airport designator
Station Type Date Time Source
SPCL METAR 2019/06/17 04:00 UTC NOAA

SPCL 170400Z 00000KT 9999 BKN015 BKN080 22/21 Q1018 RMK PP000


Station Type Date Time Source
SPCL Decoded METAR 2019/06/17 04:00 UTC NOAA

Pucallpa, Peru (SPCL) 08-25S 074-36W 149M
Jun 17, 2019 - 12:00 AM EDT / 2019.06.17 0400 UTC
Wind: Calm:0
Visibility: greater than 7 mile(s):0
Sky conditions: mostly cloudy
Temperature: 71 F (22 C)
Dew Point: 69 F (21 C)
Relative Humidity: 94%
Pressure (altimeter): 30.06 in. Hg (1018 hPa)
ob: SPCL 170400Z 00000KT 9999 BKN015 BKN080 22/21 Q1018 RMK PP000
cycle: 4

Station Type Date Time Source
SPCL TAF 2019/06/16 18:33 UTC NOAA

TAF SPCL 161700Z 1618/1718 01004KT 9999 BKN020 SCT100 TX32/1620Z TN23/1711Z
TEMPO 1622/1703 02010KT 4000 SHRA BKN015 BKN070
TEMPO 1709/1712 8000 BKN006 BKN080

Example: see airport list